Time;durP1;ratioP1;P1;durP2;ratioP2;P2;SDS_P1;SDS_P2;PMS_P1;PMS_P2;Temp;Humidity;BMP_temperature;BMP_pressure;BME280_temperature;BME280_humidity;BME280_pressure;Samples;Min_cycle;Max_cycle;Signal;HPM_P1;HPM_P2
2022/10/06 06:04:52;;;;;;;23.02;13.88;;;;;;;8.65;100.00;101545.50;6643219;26;20040;-88
2022/10/06 06:07:55;;;;;;;16.90;12.55;;;;;;;8.76;100.00;101540.81;6634453;26;34161;-88
2022/10/06 06:11:04;;;;;;;25.17;13.13;;;;;;;8.82;100.00;101541.59;6613780;26;32926;-88
2022/10/06 06:14:17;;;;;;;21.83;12.13;;;;;;;8.96;100.00;101547.41;6633682;26;34285;-88
2022/10/06 06:17:21;;;;;;;24.77;13.73;;;;;;;9.10;100.00;101552.37;6617347;26;32767;-88
2022/10/06 06:20:24;;;;;;;21.67;13.43;;;;;;;9.17;100.00;101561.06;6613452;26;33580;-87
2022/10/06 06:23:36;;;;;;;20.55;13.57;;;;;;;9.28;100.00;101561.66;6608209;26;33248;-89
2022/10/06 06:26:40;;;;;;;20.88;14.32;;;;;;;9.33;100.00;101563.31;6633639;26;33973;-88
2022/10/06 06:29:43;;;;;;;20.92;13.40;;;;;;;9.40;100.00;101575.50;6638496;26;33922;-89
2022/10/06 06:32:46;;;;;;;20.85;14.07;;;;;;;9.41;100.00;101580.75;6627226;26;33683;-88
2022/10/06 06:51:04;;;;;;;20.70;13.60;;;;;;;9.77;100.00;101600.16;6633614;26;20306;-88
2022/10/06 06:54:09;;;;;;;22.30;13.27;;;;;;;9.85;100.00;101603.44;6634013;26;34820;-88
2022/10/06 06:57:12;;;;;;;23.55;12.70;;;;;;;9.89;100.00;101601.59;6634666;26;34032;-87
2022/10/06 07:00:16;;;;;;;22.45;13.40;;;;;;;10.19;100.00;101601.66;6633487;26;33795;-88
2022/10/06 07:03:20;;;;;;;21.83;13.05;;;;;;;10.40;100.00;101594.84;6633223;26;33774;-87
2022/10/06 07:06:57;;;;;;;22.17;13.30;;;;;;;10.58;100.00;101603.22;6634100;26;34770;-87
2022/10/06 07:10:00;;;;;;;20.73;13.35;;;;;;;10.81;100.00;101605.16;6612249;26;33544;-88
2022/10/06 07:13:05;;;;;;;19.73;13.40;;;;;;;10.64;100.00;101608.34;6613068;26;33472;-90
2022/10/06 07:26:46;;;;;;;20.98;13.70;;;;;;;11.72;100.00;101622.56;6634485;26;20412;-89
2022/10/06 07:29:53;;;;;;;17.08;12.88;;;;;;;12.78;100.00;101628.56;6613149;26;33063;-89
2022/10/06 07:32:57;;;;;;;17.55;12.55;;;;;;;14.67;96.56;101632.12;6633921;26;33657;-87
2022/10/06 07:36:01;;;;;;;18.55;11.95;;;;;;;18.38;71.88;101626.44;6633824;26;33805;-88
2022/10/06 07:39:04;;;;;;;22.67;12.05;;;;;;;22.15;58.20;101620.75;6632108;26;35011;-86
2022/10/06 07:42:14;;;;;;;13.18;10.90;;;;;;;25.27;44.26;101623.19;6632633;26;33913;-87
2022/10/06 07:45:39;;;;;;;16.03;12.40;;;;;;;27.16;38.42;101622.34;6612132;26;34290;-88
2022/10/06 07:48:46;;;;;;;16.02;11.95;;;;;;;28.27;34.51;101618.38;6613239;26;33665;-88
2022/10/06 07:51:49;;;;;;;15.00;11.65;;;;;;;28.22;33.72;101627.91;6634626;26;34391;-88
2022/10/06 07:54:52;;;;;;;19.83;12.50;;;;;;;28.04;33.43;101627.09;6634297;26;33614;-87
2022/10/06 07:57:55;;;;;;;13.73;11.45;;;;;;;25.28;38.71;101626.75;6633078;26;34346;-88
2022/10/06 08:01:10;;;;;;;13.93;11.85;;;;;;;27.21;36.12;101629.19;6632671;26;34867;-88
2022/10/06 08:04:14;;;;;;;16.10;12.07;;;;;;;25.54;38.98;101631.66;6634252;26;33877;-93
2022/10/06 08:07:17;;;;;;;18.15;11.68;;;;;;;28.11;33.86;101631.75;6633220;26;33957;-89
2022/10/06 08:17:52;;;;;;;17.30;13.13;;;;;;;26.88;35.61;101633.28;6634134;26;20293;-87
2022/10/06 08:20:57;;;;;;;18.10;13.30;;;;;;;23.03;44.59;101634.44;6617093;26;32576;-87
2022/10/06 08:24:00;;;;;;;15.70;13.35;;;;;;;25.39;39.63;101633.91;6637050;26;34242;-87
2022/10/06 08:27:03;;;;;;;16.02;12.55;;;;;;;27.65;35.06;101629.25;6621762;26;32650;-87
2022/10/06 08:30:06;;;;;;;18.40;12.93;;;;;;;27.14;35.99;101632.56;6630391;26;33435;-88
2022/10/06 08:33:09;;;;;;;14.77;12.52;;;;;;;28.22;33.98;101627.91;6632271;26;33657;-87
2022/10/06 08:36:15;;;;;;;15.27;13.15;;;;;;;27.23;34.88;101632.63;6611925;26;32458;-90
2022/10/06 08:43:14;;;;;;;16.83;12.63;;;;;;;24.16;41.80;101632.19;6631130;26;20059;-90
2022/10/06 08:46:21;;;;;;;17.12;13.30;;;;;;;22.59;46.21;101627.16;6634062;26;33703;-87
2022/10/06 08:49:37;;;;;;;19.92;13.00;;;;;;;21.54;49.09;101634.38;6629328;26;34886;-86
2022/10/06 08:53:05;;;;;;;19.02;12.90;;;;;;;20.45;53.12;101633.37;6612305;26;33414;-87
2022/10/06 08:56:16;;;;;;;18.20;12.90;;;;;;;19.43;57.47;101639.44;6631325;26;34711;-89
2022/10/06 08:59:20;;;;;;;19.25;12.93;;;;;;;19.04;58.78;101633.91;6631282;26;33645;-88
2022/10/06 09:02:37;;;;;;;18.80;12.05;;;;;;;18.84;59.49;101636.06;6632389;26;34001;-88
2022/10/06 09:05:40;;;;;;;18.90;13.07;;;;;;;18.55;61.30;101627.16;6633771;26;34211;-89
2022/10/06 09:09:04;;;;;;;19.67;14.10;;;;;;;18.37;64.23;101630.09;6634317;26;34455;-88
2022/10/06 09:12:29;;;;;;;22.20;14.23;;;;;;;18.48;62.95;101628.53;6635496;26;33615;-88
2022/10/06 09:15:38;;;;;;;21.02;13.45;;;;;;;18.47;62.21;101624.13;6635607;26;34362;-87
2022/10/06 09:19:00;;;;;;;21.73;13.15;;;;;;;18.71;62.64;101619.84;6615276;26;32738;-88
2022/10/06 09:22:19;;;;;;;28.23;14.70;;;;;;;18.98;64.44;101628.91;6633287;26;34423;-89
2022/10/06 09:25:27;;;;;;;17.58;14.13;;;;;;;19.12;58.85;101631.56;6633841;26;34694;-87
2022/10/06 09:28:30;;;;;;;22.20;13.48;;;;;;;19.34;59.64;101634.66;6614913;26;33769;-86
2022/10/06 09:31:38;;;;;;;17.00;12.82;;;;;;;19.45;58.14;101634.81;6644397;26;34695;-86
2022/10/06 09:34:48;;;;;;;23.92;13.35;;;;;;;19.96;58.87;101624.25;6616765;26;32285;-88
2022/10/06 09:38:03;;;;;;;25.17;12.80;;;;;;;20.51;56.44;101634.78;6633750;26;33968;-87
2022/10/06 09:41:12;;;;;;;24.67;14.63;;;;;;;21.08;55.80;101627.06;6634038;26;33878;-87
2022/10/06 09:44:26;;;;;;;21.08;14.75;;;;;;;20.59;53.35;101630.56;6635223;26;34344;-87
2022/10/06 09:47:43;;;;;;;16.12;12.82;;;;;;;20.31;56.13;101628.97;6635880;26;34798;-87
2022/10/06 09:51:23;;;;;;;17.98;13.23;;;;;;;20.99;52.21;101625.91;6633883;26;33856;-88
2022/10/06 09:54:27;;;;;;;22.95;13.52;;;;;;;20.46;54.23;101638.66;6499667;27;33358;-88
2022/10/06 09:57:31;;;;;;;23.38;13.60;;;;;;;20.25;54.89;101630.28;6498862;27;34892;-88
2022/10/06 10:01:03;;;;;;;20.95;13.15;;;;;;;20.24;56.90;101628.56;6481823;27;32884;-89
2022/10/06 10:27:26;;;;;;;20.70;13.10;;;;;;;19.95;56.98;101626.03;6512092;26;20063;-87
2022/10/06 10:30:32;;;;;;;20.08;11.98;;;;;;;21.24;53.20;101626.78;6647691;26;34907;-87
2022/10/06 10:33:47;;;;;;;24.33;13.80;;;;;;;23.04;47.35;101614.53;6641998;26;35330;-90
2022/10/06 10:37:13;;;;;;;23.17;13.32;;;;;;;23.14;45.81;101612.75;6632595;26;34848;-86
2022/10/06 10:40:36;;;;;;;22.33;14.05;;;;;;;22.41;47.66;101604.28;6632431;26;34169;-87
2022/10/06 10:43:55;;;;;;;21.12;15.07;;;;;;;22.98;47.06;101606.94;6633344;26;34567;-88
2022/10/06 10:47:21;;;;;;;19.80;13.13;;;;;;;23.35;45.21;101603.88;6614589;26;32472;-88
2022/10/06 10:50:30;;;;;;;25.65;15.75;;;;;;;23.76;45.00;101597.69;6630864;26;34741;-89
2022/10/06 10:54:00;;;;;;;24.25;14.52;;;;;;;23.69;45.68;101602.81;6634869;26;34027;-89
2022/10/06 10:57:05;;;;;;;23.10;13.27;;;;;;;24.27;43.33;101606.84;6635676;26;33734;-90
2022/10/06 11:00:19;;;;;;;17.37;12.88;;;;;;;26.50;37.95;101608.88;6629833;26;34565;-90
2022/10/06 11:03:22;;;;;;;17.90;12.43;;;;;;;24.71;41.12;101609.25;6614822;26;33869;-91
2022/10/06 11:06:36;;;;;;;22.35;11.82;;;;;;;23.57;46.13;101610.13;6633257;26;35417;-92
2022/10/06 11:09:58;;;;;;;17.92;10.82;;;;;;;22.97;46.50;101614.19;6633250;26;34350;-89
2022/10/06 11:13:18;;;;;;;20.25;11.75;;;;;;;23.45;46.45;101611.19;6632828;26;33792;-89
2022/10/06 11:16:46;;;;;;;14.05;9.90;;;;;;;23.32;46.02;101604.09;6615992;26;32976;-88
2022/10/06 11:20:00;;;;;;;18.37;10.45;;;;;;;22.62;46.23;101604.41;6634625;26;33988;-89
2022/10/06 11:23:46;;;;;;;20.23;9.70;;;;;;;22.79;47.73;101599.47;6627723;26;34665;-89
2022/10/06 11:27:07;;;;;;;15.88;9.55;;;;;;;23.85;44.90;101596.91;6576054;27;35348;-90
2022/10/06 11:30:18;;;;;;;15.35;9.52;;;;;;;22.78;46.85;101590.50;6585390;27;33776;-89
2022/10/06 11:33:54;;;;;;;15.98;9.93;;;;;;;22.40;49.00;101583.66;6603808;27;34604;-92
2022/10/06 11:37:08;;;;;;;21.10;9.82;;;;;;;22.07;50.90;101587.13;6606625;26;33871;-89
2022/10/06 11:40:43;;;;;;;14.85;9.55;;;;;;;21.96;51.71;101586.25;6607654;27;34311;-88
2022/10/06 11:44:07;;;;;;;16.65;10.10;;;;;;;21.84;52.67;101588.94;6622777;26;35208;-88
2022/10/06 11:47:24;;;;;;;15.23;9.90;;;;;;;21.52;54.34;101584.19;6598892;27;33463;-87
2022/10/06 11:50:41;;;;;;;19.27;10.63;;;;;;;21.10;55.01;101576.56;6593922;27;33135;-87
2022/10/06 11:53:44;;;;;;;14.98;10.20;;;;;;;20.68;56.66;101574.25;6610986;26;34282;-88
2022/10/06 11:56:47;;;;;;;15.88;10.85;;;;;;;20.89;57.04;101585.28;6585730;27;34575;-88
2022/10/06 11:59:52;;;;;;;15.27;10.90;;;;;;;20.70;56.75;101578.53;6605866;27;33901;-87
2022/10/06 12:03:27;;;;;;;18.95;9.80;;;;;;;20.43;58.49;101576.03;6605759;27;34547;-87
2022/10/06 12:06:52;;;;;;;17.48;10.27;;;;;;;20.37;59.54;101573.78;6606022;27;34020;-88
2022/10/06 12:10:26;;;;;;;16.37;10.60;;;;;;;20.54;59.41;101580.62;6605774;27;34684;-88
2022/10/06 12:13:40;;;;;;;14.98;9.82;;;;;;;20.87;57.99;101581.88;6586301;27;33554;-88
2022/10/06 12:17:30;;;;;;;12.07;9.40;;;;;;;20.94;56.67;101572.34;6605120;27;34299;-88
2022/10/06 12:20:57;;;;;;;12.48;8.80;;;;;;;21.04;56.77;101577.03;6585802;27;32635;-88
2022/10/06 12:24:17;;;;;;;14.80;9.88;;;;;;;20.73;57.30;101572.91;6587690;27;32396;-87
2022/10/06 12:27:25;;;;;;;15.18;9.18;;;;;;;20.30;58.79;101576.94;6635854;26;35232;-88
2022/10/06 12:30:51;;;;;;;14.20;9.70;;;;;;;20.25;59.84;101573.69;6613830;26;33398;-89
2022/10/06 12:33:55;;;;;;;18.58;9.40;;;;;;;20.28;58.72;101568.09;6608022;26;33522;-88
2022/10/06 12:37:29;;;;;;;14.63;9.25;;;;;;;20.31;59.16;101573.25;6613666;26;32967;-88
2022/10/06 12:40:47;;;;;;;15.10;9.90;;;;;;;20.12;59.73;101565.63;6611112;26;34862;-88
2022/10/06 12:43:53;;;;;;;15.40;9.98;;;;;;;20.45;59.75;101563.31;6615189;26;32415;-87
2022/10/06 12:47:02;;;;;;;13.30;9.30;;;;;;;20.55;59.06;101566.19;6618141;26;34646;-88
2022/10/06 12:50:19;;;;;;;16.17;10.35;;;;;;;20.63;58.98;101562.94;6618036;26;34449;-89
2022/10/06 12:53:33;;;;;;;13.25;9.43;;;;;;;20.44;59.12;101556.19;6613622;26;32335;-89
2022/10/06 12:56:40;;;;;;;12.10;9.35;;;;;;;20.37;59.85;101544.16;6633762;26;34056;-88
2022/10/06 12:59:43;;;;;;;14.20;9.02;;;;;;;20.54;59.89;101551.00;6634618;26;33987;-90
2022/10/06 13:02:46;;;;;;;15.85;9.15;;;;;;;20.79;58.99;101547.34;6635083;26;34490;-89
2022/10/06 13:05:53;;;;;;;13.18;8.98;;;;;;;21.13;58.54;101544.81;6634286;26;34546;-89
2022/10/06 13:09:11;;;;;;;12.37;8.77;;;;;;;20.83;58.27;101554.22;6615857;26;32488;-92
2022/10/06 13:12:35;;;;;;;13.55;8.73;;;;;;;20.85;56.91;101551.44;6633941;26;33976;-90
2022/10/06 13:15:41;;;;;;;16.87;9.18;;;;;;;20.94;58.61;101549.88;6633788;26;34322;-87
2022/10/06 13:18:45;;;;;;;13.93;8.68;;;;;;;20.76;58.41;101538.63;6612906;26;32543;-88
2022/10/06 13:21:48;;;;;;;17.92;8.68;;;;;;;20.69;59.34;101541.78;6632956;26;34000;-89
2022/10/06 13:24:59;;;;;;;10.95;8.20;;;;;;;20.63;59.37;101535.97;6632895;26;34198;-88
2022/10/06 13:28:04;;;;;;;14.45;9.38;;;;;;;20.47;61.64;101532.56;6632458;26;34623;-87
2022/10/06 13:31:22;;;;;;;12.10;8.40;;;;;;;20.46;60.17;101528.16;6633723;26;35323;-87
2022/10/06 13:34:31;;;;;;;14.25;8.32;;;;;;;20.68;59.44;101528.41;6632781;26;34324;-87
2022/10/06 13:37:35;;;;;;;11.60;8.45;;;;;;;20.64;61.33;101526.91;6632700;26;34009;-87
2022/10/06 13:40:39;;;;;;;16.27;9.68;;;;;;;20.64;59.88;101526.91;6631832;26;34541;-87
2022/10/06 13:43:51;;;;;;;13.68;8.63;;;;;;;20.48;59.99;101522.66;6632326;26;35051;-87
2022/10/06 13:47:01;;;;;;;12.75;9.07;;;;;;;20.28;61.77;101524.13;6632752;26;34508;-87
2022/10/06 13:50:07;;;;;;;19.12;8.70;;;;;;;20.16;61.14;101523.19;6632293;26;35098;-87
2022/10/06 13:53:29;;;;;;;12.57;8.27;;;;;;;20.24;61.21;101520.78;6633007;26;34036;-87
2022/10/06 13:56:34;;;;;;;14.27;8.40;;;;;;;20.16;62.41;101521.34;6633013;26;34018;-88
2022/10/06 13:59:37;;;;;;;12.07;7.90;;;;;;;20.36;62.28;101528.97;6633353;26;33870;-87
2022/10/06 14:02:45;;;;;;;13.13;7.70;;;;;;;20.40;60.79;101522.34;6632041;26;33681;-87
2022/10/06 14:05:49;;;;;;;10.35;7.53;;;;;;;20.23;62.16;101520.91;6613294;26;33970;-92
2022/10/06 14:08:56;;;;;;;12.13;7.35;;;;;;;20.18;64.43;101522.09;6613644;26;32343;-92
2022/10/06 14:12:15;;;;;;;10.57;7.30;;;;;;;20.29;62.49;101525.84;6634001;26;33992;-88
2022/10/06 14:15:44;;;;;;;10.95;7.22;;;;;;;20.27;61.82;101528.63;6630208;26;32997;-88
2022/10/06 14:19:34;;;;;;;10.73;7.65;;;;;;;20.35;61.65;101532.63;6635621;26;34597;-88
2022/10/06 14:22:37;;;;;;;11.70;6.97;;;;;;;19.98;63.52;101536.13;6607443;26;33509;-89
2022/10/06 14:25:40;;;;;;;9.30;6.97;;;;;;;19.90;65.28;101539.34;6633658;26;34659;-89
2022/10/06 14:28:51;;;;;;;12.25;7.70;;;;;;;19.84;65.49;101535.25;6643044;26;33889;-90
2022/10/06 14:31:54;;;;;;;12.35;6.25;;;;;;;19.63;68.71;101546.59;6648421;26;33751;-90
2022/10/06 14:34:56;;;;;;;10.80;6.68;;;;;;;19.53;69.56;101553.56;6625481;26;33500;-90
2022/10/06 14:37:59;;;;;;;11.32;7.78;;;;;;;19.50;68.95;101546.56;6623500;26;34019;-89
2022/10/06 14:41:02;;;;;;;11.25;7.32;;;;;;;19.47;68.26;101540.53;6611703;26;33751;-88
2022/10/06 14:44:11;;;;;;;12.45;6.80;;;;;;;19.28;71.88;101555.25;6634441;26;34935;-89
2022/10/06 14:47:13;;;;;;;12.48;6.75;;;;;;;19.28;70.89;101549.00;6615672;26;33694;-89
2022/10/06 14:50:16;;;;;;;8.23;6.47;;;;;;;19.23;72.71;101552.88;6637021;26;33801;-89
2022/10/06 14:53:19;;;;;;;10.93;7.05;;;;;;;18.97;75.56;101546.53;6631080;26;33888;-89
2022/10/06 14:56:36;;;;;;;9.68;6.90;;;;;;;18.92;75.05;101554.03;6608839;26;32474;-89
2022/10/06 15:03:14;;;;;;;10.57;7.28;;;;;;;18.64;79.19;101567.47;6579692;27;34643;-90
2022/10/06 15:09:41;;;;;;;23.27;6.37;;;;;;;18.47;77.62;101559.63;6593476;26;34066;-90
2022/10/06 15:12:44;;;;;;;9.85;5.37;;;;;;;18.41;76.10;101564.44;6628621;26;33930;-89
2022/10/06 15:15:47;;;;;;;7.45;5.37;;;;;;;18.34;76.87;101562.28;6615713;26;32423;-90
2022/10/06 15:18:51;;;;;;;8.02;5.05;;;;;;;18.25;76.77;101561.88;6615521;26;32783;-90
2022/10/06 15:21:53;;;;;;;7.82;5.22;;;;;;;18.29;77.09;101573.28;6637601;26;33709;-90
2022/10/06 15:24:56;;;;;;;10.55;5.47;;;;;;;18.32;77.25;101575.78;6609872;26;33003;-89
2022/10/06 15:31:35;;;;;;;6.32;5.28;;;;;;;18.15;79.30;101575.03;6634850;26;33894;-89
2022/10/06 15:34:38;;;;;;;9.90;5.62;;;;;;;17.95;82.04;101576.22;6629054;26;34081;-89
2022/10/06 15:37:41;;;;;;;8.60;5.95;;;;;;;17.95;82.04;101570.84;6614858;26;33898;-89
2022/10/06 15:40:45;;;;;;;7.53;5.90;;;;;;;17.64;83.29;101586.16;6614438;26;33331;-88
2022/10/06 15:43:54;;;;;;;8.73;5.93;;;;;;;17.63;84.37;101587.13;6633783;26;34703;-88
2022/10/06 15:46:56;;;;;;;10.00;6.35;;;;;;;17.60;85.03;101590.00;6633857;26;33910;-89
2022/10/06 15:49:59;;;;;;;12.15;6.62;;;;;;;17.52;85.51;101590.47;6614170;26;32499;-88
2022/10/06 15:53:02;;;;;;;10.32;6.70;;;;;;;17.41;87.00;101591.09;6634345;26;33919;-88
